sensor_id;sensor_type;location;lat;lon;timestamp;temperature;humidity
25302;DHT22;13243;50.888;4.724;2023-05-10T00:00:16;13.40;99.90
25302;DHT22;13243;50.888;4.724;2023-05-10T00:05:18;13.20;99.90
25302;DHT22;13243;50.888;4.724;2023-05-10T00:10:20;13.20;99.90
25302;DHT22;13243;50.888;4.724;2023-05-10T00:15:22;13.20;99.90
25302;DHT22;13243;50.888;4.724;2023-05-10T00:20:23;13.20;99.90
25302;DHT22;13243;50.888;4.724;2023-05-10T00:25:25;13.20;99.90
25302;DHT22;13243;50.888;4.724;2023-05-10T00:30:27;13.20;99.90
25302;DHT22;13243;50.888;4.724;2023-05-10T00:35:29;13.20;99.90
25302;DHT22;13243;50.888;4.724;2023-05-10T00:40:31;13.20;99.90
25302;DHT22;13243;50.888;4.724;2023-05-10T00:45:33;13.20;99.90
25302;DHT22;13243;50.888;4.724;2023-05-10T00:50:35;13.10;99.90
25302;DHT22;13243;50.888;4.724;2023-05-10T00:55:38;13.20;99.90
25302;DHT22;13243;50.888;4.724;2023-05-10T01:00:41;13.20;99.90
25302;DHT22;13243;50.888;4.724;2023-05-10T01:05:43;13.20;99.90
25302;DHT22;13243;50.888;4.724;2023-05-10T01:10:45;13.30;99.90
25302;DHT22;13243;50.888;4.724;2023-05-10T01:15:47;13.20;99.90
25302;DHT22;13243;50.888;4.724;2023-05-10T01:21:14;13.30;99.90
25302;DHT22;13243;50.888;4.724;2023-05-10T01:32:42;13.20;99.90
25302;DHT22;13243;50.888;4.724;2023-05-10T01:37:50;13.30;99.90
25302;DHT22;13243;50.888;4.724;2023-05-10T01:43:00;13.20;99.90
25302;DHT22;13243;50.888;4.724;2023-05-10T01:48:06;13.10;99.90
25302;DHT22;13243;50.888;4.724;2023-05-10T01:53:10;13.10;99.90
25302;DHT22;13243;50.888;4.724;2023-05-10T01:58:17;13.10;99.90
25302;DHT22;13243;50.888;4.724;2023-05-10T02:03:24;13.00;99.90
25302;DHT22;13243;50.888;4.724;2023-05-10T02:08:28;13.10;99.90
25302;DHT22;13243;50.888;4.724;2023-05-10T02:13:32;13.00;99.90
25302;DHT22;13243;50.888;4.724;2023-05-10T02:18:36;13.20;99.90
25302;DHT22;13243;50.888;4.724;2023-05-10T02:23:38;13.10;99.90
25302;DHT22;13243;50.888;4.724;2023-05-10T02:28:42;13.20;99.90
25302;DHT22;13243;50.888;4.724;2023-05-10T02:33:45;13.20;99.90
25302;DHT22;13243;50.888;4.724;2023-05-10T02:38:48;13.10;99.90
25302;DHT22;13243;50.888;4.724;2023-05-10T02:43:55;13.30;99.90
25302;DHT22;13243;50.888;4.724;2023-05-10T02:48:57;13.20;99.90
25302;DHT22;13243;50.888;4.724;2023-05-10T02:54:07;13.20;99.90
25302;DHT22;13243;50.888;4.724;2023-05-10T02:59:11;13.20;99.90
25302;DHT22;13243;50.888;4.724;2023-05-10T03:04:13;13.30;99.90
25302;DHT22;13243;50.888;4.724;2023-05-10T03:09:15;13.20;99.90
25302;DHT22;13243;50.888;4.724;2023-05-10T03:19:30;13.20;99.90
25302;DHT22;13243;50.888;4.724;2023-05-10T03:24:35;13.20;99.90
25302;DHT22;13243;50.888;4.724;2023-05-10T03:29:39;13.20;99.90
25302;DHT22;13243;50.888;4.724;2023-05-10T03:34:42;13.10;99.90
25302;DHT22;13243;50.888;4.724;2023-05-10T03:39:44;13.00;99.90
25302;DHT22;13243;50.888;4.724;2023-05-10T03:44:46;13.00;99.90
25302;DHT22;13243;50.888;4.724;2023-05-10T03:49:50;13.10;99.90
25302;DHT22;13243;50.888;4.724;2023-05-10T03:54:52;12.90;99.90
25302;DHT22;13243;50.888;4.724;2023-05-10T03:59:54;12.90;99.90
25302;DHT22;13243;50.888;4.724;2023-05-10T04:04:56;12.90;99.90
25302;DHT22;13243;50.888;4.724;2023-05-10T04:09:58;12.80;99.90
25302;DHT22;13243;50.888;4.724;2023-05-10T04:15:00;12.80;99.90
25302;DHT22;13243;50.888;4.724;2023-05-10T04:20:01;12.80;99.90
25302;DHT22;13243;50.888;4.724;2023-05-10T04:25:06;12.70;99.90
25302;DHT22;13243;50.888;4.724;2023-05-10T04:30:09;12.80;99.90
25302;DHT22;13243;50.888;4.724;2023-05-10T04:35:10;12.80;99.90
25302;DHT22;13243;50.888;4.724;2023-05-10T04:40:12;12.80;99.90
25302;DHT22;13243;50.888;4.724;2023-05-10T04:45:14;12.80;99.90
25302;DHT22;13243;50.888;4.724;2023-05-10T04:50:17;12.80;99.90
25302;DHT22;13243;50.888;4.724;2023-05-10T04:55:19;12.90;99.90
25302;DHT22;13243;50.888;4.724;2023-05-10T05:00:21;12.80;99.90
25302;DHT22;13243;50.888;4.724;2023-05-10T05:05:22;12.70;99.90
25302;DHT22;13243;50.888;4.724;2023-05-10T05:10:24;12.90;99.90
25302;DHT22;13243;50.888;4.724;2023-05-10T05:15:26;12.90;99.90
25302;DHT22;13243;50.888;4.724;2023-05-10T05:20:32;12.90;99.90
25302;DHT22;13243;50.888;4.724;2023-05-10T05:25:34;12.90;99.90
25302;DHT22;13243;50.888;4.724;2023-05-10T05:30:37;12.90;99.90
25302;DHT22;13243;50.888;4.724;2023-05-10T05:35:39;12.90;99.90
25302;DHT22;13243;50.888;4.724;2023-05-10T05:40:41;12.80;99.90
25302;DHT22;13243;50.888;4.724;2023-05-10T05:45:42;13.00;99.90
25302;DHT22;13243;50.888;4.724;2023-05-10T05:50:44;12.90;99.90
25302;DHT22;13243;50.888;4.724;2023-05-10T05:55:53;12.80;99.90
25302;DHT22;13243;50.888;4.724;2023-05-10T06:00:55;12.80;99.90
25302;DHT22;13243;50.888;4.724;2023-05-10T06:05:58;12.80;99.90
25302;DHT22;13243;50.888;4.724;2023-05-10T06:11:03;13.00;99.90
25302;DHT22;13243;50.888;4.724;2023-05-10T06:16:05;13.00;99.90
25302;DHT22;13243;50.888;4.724;2023-05-10T06:21:08;13.10;99.90
25302;DHT22;13243;50.888;4.724;2023-05-10T06:26:10;13.00;99.90
25302;DHT22;13243;50.888;4.724;2023-05-10T06:31:11;13.10;99.90
25302;DHT22;13243;50.888;4.724;2023-05-10T06:36:14;13.10;99.90
25302;DHT22;13243;50.888;4.724;2023-05-10T06:41:16;13.20;99.90
25302;DHT22;13243;50.888;4.724;2023-05-10T06:46:19;13.10;99.90
25302;DHT22;13243;50.888;4.724;2023-05-10T06:51:21;13.10;99.90
25302;DHT22;13243;50.888;4.724;2023-05-10T06:56:22;13.20;99.90
25302;DHT22;13243;50.888;4.724;2023-05-10T07:01:24;13.30;99.90
25302;DHT22;13243;50.888;4.724;2023-05-10T07:06:26;13.30;99.90
25302;DHT22;13243;50.888;4.724;2023-05-10T07:11:34;13.20;99.90
25302;DHT22;13243;50.888;4.724;2023-05-10T07:16:36;13.30;99.90
25302;DHT22;13243;50.888;4.724;2023-05-10T07:21:38;13.10;99.90
25302;DHT22;13243;50.888;4.724;2023-05-10T07:26:42;13.30;99.90
25302;DHT22;13243;50.888;4.724;2023-05-10T07:31:43;13.20;99.90
25302;DHT22;13243;50.888;4.724;2023-05-10T07:36:45;13.10;99.90
25302;DHT22;13243;50.888;4.724;2023-05-10T07:41:47;12.90;99.90
25302;DHT22;13243;50.888;4.724;2023-05-10T07:46:49;12.90;99.90
25302;DHT22;13243;50.888;4.724;2023-05-10T07:51:51;13.10;99.90
25302;DHT22;13243;50.888;4.724;2023-05-10T07:56:53;12.90;99.90
25302;DHT22;13243;50.888;4.724;2023-05-10T08:01:55;12.90;99.90
25302;DHT22;13243;50.888;4.724;2023-05-10T08:06:57;12.90;99.90
25302;DHT22;13243;50.888;4.724;2023-05-10T08:11:59;12.90;99.90
25302;DHT22;13243;50.888;4.724;2023-05-10T08:17:02;12.80;99.90
25302;DHT22;13243;50.888;4.724;2023-05-10T08:22:04;12.70;99.90
25302;DHT22;13243;50.888;4.724;2023-05-10T08:27:07;12.70;99.90
25302;DHT22;13243;50.888;4.724;2023-05-10T08:32:09;12.90;99.90
25302;DHT22;13243;50.888;4.724;2023-05-10T08:37:11;12.90;99.90
25302;DHT22;13243;50.888;4.724;2023-05-10T08:42:19;12.60;99.90
25302;DHT22;13243;50.888;4.724;2023-05-10T08:47:24;12.80;99.90
25302;DHT22;13243;50.888;4.724;2023-05-10T09:05:18;12.90;99.90
25302;DHT22;13243;50.888;4.724;2023-05-10T09:10:20;12.80;99.90
25302;DHT22;13243;50.888;4.724;2023-05-10T09:15:23;13.00;99.90
25302;DHT22;13243;50.888;4.724;2023-05-10T09:20:25;13.00;99.90
25302;DHT22;13243;50.888;4.724;2023-05-10T09:25:27;13.00;99.90
25302;DHT22;13243;50.888;4.724;2023-05-10T09:30:30;13.20;99.90
25302;DHT22;13243;50.888;4.724;2023-05-10T09:35:33;13.20;99.90
25302;DHT22;13243;50.888;4.724;2023-05-10T09:40:35;13.20;99.90
25302;DHT22;13243;50.888;4.724;2023-05-10T09:45:37;13.20;99.90
25302;DHT22;13243;50.888;4.724;2023-05-10T09:50:39;13.30;99.90
25302;DHT22;13243;50.888;4.724;2023-05-10T09:55:43;13.30;99.90
25302;DHT22;13243;50.888;4.724;2023-05-10T10:00:47;13.40;99.90
25302;DHT22;13243;50.888;4.724;2023-05-10T10:05:52;13.30;99.90
25302;DHT22;13243;50.888;4.724;2023-05-10T10:10:57;13.40;99.90
25302;DHT22;13243;50.888;4.724;2023-05-10T10:15:59;13.40;99.90
25302;DHT22;13243;50.888;4.724;2023-05-10T10:21:01;13.60;99.90
25302;DHT22;13243;50.888;4.724;2023-05-10T10:26:04;13.50;99.90
25302;DHT22;13243;50.888;4.724;2023-05-10T10:36:20;13.50;99.90
25302;DHT22;13243;50.888;4.724;2023-05-10T10:41:29;13.60;99.90
25302;DHT22;13243;50.888;4.724;2023-05-10T10:46:32;13.40;99.90
25302;DHT22;13243;50.888;4.724;2023-05-10T10:51:39;13.40;99.90
25302;DHT22;13243;50.888;4.724;2023-05-10T10:56:44;13.40;99.90
25302;DHT22;13243;50.888;4.724;2023-05-10T11:01:51;13.60;99.90
25302;DHT22;13243;50.888;4.724;2023-05-10T11:07:16;13.80;99.90
25302;DHT22;13243;50.888;4.724;2023-05-10T11:12:18;13.90;99.90
25302;DHT22;13243;50.888;4.724;2023-05-10T11:17:38;14.40;99.90
25302;DHT22;13243;50.888;4.724;2023-05-10T11:22:50;14.60;99.90
25302;DHT22;13243;50.888;4.724;2023-05-10T11:27:53;14.80;99.90
25302;DHT22;13243;50.888;4.724;2023-05-10T11:32:55;15.20;99.90
25302;DHT22;13243;50.888;4.724;2023-05-10T11:37:57;15.30;99.90
25302;DHT22;13243;50.888;4.724;2023-05-10T11:42:59;15.40;99.90
25302;DHT22;13243;50.888;4.724;2023-05-10T11:48:02;14.60;99.90
25302;DHT22;13243;50.888;4.724;2023-05-10T11:53:04;14.80;99.90
25302;DHT22;13243;50.888;4.724;2023-05-10T11:58:06;15.40;99.90
25302;DHT22;13243;50.888;4.724;2023-05-10T12:03:08;15.50;99.90
25302;DHT22;13243;50.888;4.724;2023-05-10T12:08:11;15.00;99.90
25302;DHT22;13243;50.888;4.724;2023-05-10T12:13:14;15.10;99.90
25302;DHT22;13243;50.888;4.724;2023-05-10T12:18:22;15.10;99.90
25302;DHT22;13243;50.888;4.724;2023-05-10T12:23:26;15.10;99.90
25302;DHT22;13243;50.888;4.724;2023-05-10T12:28:30;15.80;99.90
25302;DHT22;13243;50.888;4.724;2023-05-10T12:33:43;15.50;99.90
25302;DHT22;13243;50.888;4.724;2023-05-10T12:38:45;15.20;99.90
25302;DHT22;13243;50.888;4.724;2023-05-10T12:43:49;15.40;99.90
25302;DHT22;13243;50.888;4.724;2023-05-10T12:48:52;15.50;99.90
25302;DHT22;13243;50.888;4.724;2023-05-10T12:54:09;15.60;99.90
25302;DHT22;13243;50.888;4.724;2023-05-10T12:59:11;15.90;99.90
25302;DHT22;13243;50.888;4.724;2023-05-10T13:04:13;15.90;99.90
25302;DHT22;13243;50.888;4.724;2023-05-10T13:09:15;16.00;99.90
25302;DHT22;13243;50.888;4.724;2023-05-10T13:14:17;15.80;99.90
25302;DHT22;13243;50.888;4.724;2023-05-10T13:19:20;16.20;99.90
25302;DHT22;13243;50.888;4.724;2023-05-10T13:24:22;16.40;99.90
25302;DHT22;13243;50.888;4.724;2023-05-10T13:29:24;16.10;99.90
25302;DHT22;13243;50.888;4.724;2023-05-10T13:34:26;15.90;99.90
25302;DHT22;13243;50.888;4.724;2023-05-10T13:39:28;16.00;99.90
25302;DHT22;13243;50.888;4.724;2023-05-10T13:44:34;15.90;99.90
25302;DHT22;13243;50.888;4.724;2023-05-10T13:49:37;16.00;99.90
25302;DHT22;13243;50.888;4.724;2023-05-10T13:54:39;16.20;99.90
25302;DHT22;13243;50.888;4.724;2023-05-10T13:59:41;16.10;99.90
25302;DHT22;13243;50.888;4.724;2023-05-10T14:04:42;16.00;99.90
25302;DHT22;13243;50.888;4.724;2023-05-10T14:09:44;15.70;99.90
25302;DHT22;13243;50.888;4.724;2023-05-10T14:14:46;15.90;99.90
25302;DHT22;13243;50.888;4.724;2023-05-10T14:19:48;16.30;99.90
25302;DHT22;13243;50.888;4.724;2023-05-10T14:24:50;16.40;99.90
25302;DHT22;13243;50.888;4.724;2023-05-10T14:29:52;16.70;99.90
25302;DHT22;13243;50.888;4.724;2023-05-10T14:34:54;17.00;99.90
25302;DHT22;13243;50.888;4.724;2023-05-10T14:39:57;17.20;99.90
25302;DHT22;13243;50.888;4.724;2023-05-10T14:44:59;17.20;99.90
25302;DHT22;13243;50.888;4.724;2023-05-10T14:50:00;16.90;99.90
25302;DHT22;13243;50.888;4.724;2023-05-10T14:55:03;16.90;99.90
25302;DHT22;13243;50.888;4.724;2023-05-10T15:00:06;16.30;99.90
25302;DHT22;13243;50.888;4.724;2023-05-10T15:05:08;16.40;99.90
25302;DHT22;13243;50.888;4.724;2023-05-10T15:10:10;16.10;99.90
25302;DHT22;13243;50.888;4.724;2023-05-10T15:15:12;16.10;99.90
25302;DHT22;13243;50.888;4.724;2023-05-10T15:20:14;16.00;99.90
25302;DHT22;13243;50.888;4.724;2023-05-10T15:25:16;16.30;99.90
25302;DHT22;13243;50.888;4.724;2023-05-10T15:30:18;16.30;99.90
25302;DHT22;13243;50.888;4.724;2023-05-10T15:35:20;16.40;99.90
25302;DHT22;13243;50.888;4.724;2023-05-10T15:40:22;16.50;99.90
25302;DHT22;13243;50.888;4.724;2023-05-10T15:45:24;16.80;99.90
25302;DHT22;13243;50.888;4.724;2023-05-10T15:50:26;16.20;99.90
25302;DHT22;13243;50.888;4.724;2023-05-10T15:55:28;15.60;99.90
25302;DHT22;13243;50.888;4.724;2023-05-10T16:00:30;15.20;99.90
25302;DHT22;13243;50.888;4.724;2023-05-10T16:05:32;15.00;99.90
25302;DHT22;13243;50.888;4.724;2023-05-10T16:10:34;14.90;99.90
25302;DHT22;13243;50.888;4.724;2023-05-10T16:15:36;14.60;99.90
25302;DHT22;13243;50.888;4.724;2023-05-10T16:20:37;14.70;99.90
25302;DHT22;13243;50.888;4.724;2023-05-10T16:25:40;14.60;99.90
25302;DHT22;13243;50.888;4.724;2023-05-10T16:30:42;14.30;99.90
25302;DHT22;13243;50.888;4.724;2023-05-10T16:35:43;14.30;99.90
25302;DHT22;13243;50.888;4.724;2023-05-10T16:40:45;14.50;99.90
25302;DHT22;13243;50.888;4.724;2023-05-10T16:45:47;14.50;99.90
25302;DHT22;13243;50.888;4.724;2023-05-10T16:50:49;14.40;99.90
25302;DHT22;13243;50.888;4.724;2023-05-10T16:55:50;14.30;99.90
25302;DHT22;13243;50.888;4.724;2023-05-10T17:00:52;14.50;99.90
25302;DHT22;13243;50.888;4.724;2023-05-10T17:05:54;14.60;99.90
25302;DHT22;13243;50.888;4.724;2023-05-10T17:11:00;14.50;99.90
25302;DHT22;13243;50.888;4.724;2023-05-10T17:16:02;14.60;99.90
25302;DHT22;13243;50.888;4.724;2023-05-10T17:21:04;14.60;99.90
25302;DHT22;13243;50.888;4.724;2023-05-10T17:26:06;14.70;99.90
25302;DHT22;13243;50.888;4.724;2023-05-10T17:31:08;14.70;99.90
25302;DHT22;13243;50.888;4.724;2023-05-10T17:36:10;14.50;99.90
25302;DHT22;13243;50.888;4.724;2023-05-10T17:41:13;14.70;99.90
25302;DHT22;13243;50.888;4.724;2023-05-10T17:46:15;14.70;99.90
25302;DHT22;13243;50.888;4.724;2023-05-10T17:51:17;14.70;99.90
25302;DHT22;13243;50.888;4.724;2023-05-10T17:56:20;14.70;99.90
25302;DHT22;13243;50.888;4.724;2023-05-10T18:01:22;14.70;99.90
25302;DHT22;13243;50.888;4.724;2023-05-10T18:06:25;14.70;99.90
25302;DHT22;13243;50.888;4.724;2023-05-10T18:11:27;14.60;99.90
25302;DHT22;13243;50.888;4.724;2023-05-10T18:16:29;14.70;99.90
25302;DHT22;13243;50.888;4.724;2023-05-10T18:21:31;14.60;99.90
25302;DHT22;13243;50.888;4.724;2023-05-10T18:26:34;14.60;99.90
25302;DHT22;13243;50.888;4.724;2023-05-10T18:31:35;14.50;99.90
25302;DHT22;13243;50.888;4.724;2023-05-10T18:36:38;14.40;99.90
25302;DHT22;13243;50.888;4.724;2023-05-10T18:41:40;14.40;99.90
25302;DHT22;13243;50.888;4.724;2023-05-10T18:46:42;14.30;99.90
25302;DHT22;13243;50.888;4.724;2023-05-10T18:51:44;14.30;99.90
25302;DHT22;13243;50.888;4.724;2023-05-10T18:56:46;14.30;99.90
25302;DHT22;13243;50.888;4.724;2023-05-10T19:01:47;14.20;99.90
25302;DHT22;13243;50.888;4.724;2023-05-10T19:06:51;14.30;99.90
25302;DHT22;13243;50.888;4.724;2023-05-10T19:11:53;14.20;99.90
25302;DHT22;13243;50.888;4.724;2023-05-10T19:16:55;14.20;99.90
25302;DHT22;13243;50.888;4.724;2023-05-10T19:21:57;14.20;99.90
25302;DHT22;13243;50.888;4.724;2023-05-10T19:27:00;14.10;99.90
25302;DHT22;13243;50.888;4.724;2023-05-10T19:32:02;14.00;99.90
25302;DHT22;13243;50.888;4.724;2023-05-10T19:37:05;14.00;99.90
25302;DHT22;13243;50.888;4.724;2023-05-10T19:42:07;14.00;99.90
25302;DHT22;13243;50.888;4.724;2023-05-10T19:47:09;14.00;99.90
25302;DHT22;13243;50.888;4.724;2023-05-10T19:52:12;14.00;99.90
25302;DHT22;13243;50.888;4.724;2023-05-10T19:57:14;14.00;99.90
25302;DHT22;13243;50.888;4.724;2023-05-10T20:02:16;14.00;99.90
25302;DHT22;13243;50.888;4.724;2023-05-10T20:07:18;14.00;99.90
25302;DHT22;13243;50.888;4.724;2023-05-10T20:12:20;14.00;99.90
25302;DHT22;13243;50.888;4.724;2023-05-10T20:17:22;14.00;99.90
25302;DHT22;13243;50.888;4.724;2023-05-10T20:22:24;14.10;99.90
25302;DHT22;13243;50.888;4.724;2023-05-10T20:27:26;14.00;99.90
25302;DHT22;13243;50.888;4.724;2023-05-10T20:32:29;13.90;99.90
25302;DHT22;13243;50.888;4.724;2023-05-10T20:37:31;13.90;99.90
25302;DHT22;13243;50.888;4.724;2023-05-10T20:42:33;14.00;99.90
25302;DHT22;13243;50.888;4.724;2023-05-10T20:47:35;13.90;99.90
25302;DHT22;13243;50.888;4.724;2023-05-10T20:52:37;13.90;99.90
25302;DHT22;13243;50.888;4.724;2023-05-10T20:57:39;14.00;99.90
25302;DHT22;13243;50.888;4.724;2023-05-10T21:02:43;13.90;99.90
25302;DHT22;13243;50.888;4.724;2023-05-10T21:07:45;13.90;99.90
25302;DHT22;13243;50.888;4.724;2023-05-10T21:12:47;13.90;99.90
25302;DHT22;13243;50.888;4.724;2023-05-10T21:17:49;13.90;99.90
25302;DHT22;13243;50.888;4.724;2023-05-10T21:22:51;13.80;99.90
25302;DHT22;13243;50.888;4.724;2023-05-10T21:27:53;13.80;99.90
25302;DHT22;13243;50.888;4.724;2023-05-10T21:32:55;13.70;99.90
25302;DHT22;13243;50.888;4.724;2023-05-10T21:38:00;13.60;99.90
25302;DHT22;13243;50.888;4.724;2023-05-10T21:43:02;13.40;99.90
25302;DHT22;13243;50.888;4.724;2023-05-10T21:48:04;13.60;99.90
25302;DHT22;13243;50.888;4.724;2023-05-10T21:53:06;13.50;99.90
25302;DHT22;13243;50.888;4.724;2023-05-10T21:58:08;13.60;99.90
25302;DHT22;13243;50.888;4.724;2023-05-10T22:03:09;13.60;99.90
25302;DHT22;13243;50.888;4.724;2023-05-10T22:08:11;13.50;99.90
25302;DHT22;13243;50.888;4.724;2023-05-10T22:13:13;13.50;99.90
25302;DHT22;13243;50.888;4.724;2023-05-10T22:18:15;13.40;99.90
25302;DHT22;13243;50.888;4.724;2023-05-10T22:23:17;13.30;99.90
25302;DHT22;13243;50.888;4.724;2023-05-10T22:28:19;13.20;99.90
25302;DHT22;13243;50.888;4.724;2023-05-10T22:33:21;13.30;99.90
25302;DHT22;13243;50.888;4.724;2023-05-10T22:38:22;13.30;99.90
25302;DHT22;13243;50.888;4.724;2023-05-10T22:43:24;13.30;99.90
25302;DHT22;13243;50.888;4.724;2023-05-10T22:48:27;13.20;99.90
25302;DHT22;13243;50.888;4.724;2023-05-10T22:53:29;13.10;99.90
25302;DHT22;13243;50.888;4.724;2023-05-10T22:58:31;13.10;99.90
25302;DHT22;13243;50.888;4.724;2023-05-10T23:03:33;13.10;99.90
25302;DHT22;13243;50.888;4.724;2023-05-10T23:08:35;13.10;99.90
25302;DHT22;13243;50.888;4.724;2023-05-10T23:13:36;13.20;99.90
25302;DHT22;13243;50.888;4.724;2023-05-10T23:18:38;13.10;99.90
25302;DHT22;13243;50.888;4.724;2023-05-10T23:23:40;13.10;99.90
25302;DHT22;13243;50.888;4.724;2023-05-10T23:28:42;13.00;99.90
25302;DHT22;13243;50.888;4.724;2023-05-10T23:33:44;12.90;99.90
25302;DHT22;13243;50.888;4.724;2023-05-10T23:38:46;13.00;99.90
25302;DHT22;13243;50.888;4.724;2023-05-10T23:43:47;13.00;99.90
25302;DHT22;13243;50.888;4.724;2023-05-10T23:48:49;12.90;99.90
25302;DHT22;13243;50.888;4.724;2023-05-10T23:53:51;13.00;99.90
25302;DHT22;13243;50.888;4.724;2023-05-10T23:58:53;13.00;99.90
